createdAt,value
2022-12-05T00:01:44.739Z,24.10
2022-12-05T00:04:15.274Z,24.13
2022-12-05T00:06:45.055Z,24.37
2022-12-05T00:09:14.722Z,23.30
2022-12-05T00:11:45.701Z,26.20
2022-12-05T00:14:14.900Z,24.00
2022-12-05T00:16:45.074Z,25.80
2022-12-05T00:19:16.169Z,24.77
2022-12-05T00:21:44.630Z,25.20
2022-12-05T00:24:16.749Z,26.63
2022-12-05T00:26:45.115Z,27.57
2022-12-05T00:29:13.543Z,25.50
2022-12-05T00:31:42.161Z,25.97
2022-12-05T00:34:10.326Z,28.47
2022-12-05T00:36:38.585Z,28.80
2022-12-05T00:39:14.383Z,27.97
2022-12-05T00:41:43.721Z,27.30
2022-12-05T00:44:13.739Z,27.13
2022-12-05T00:46:42.108Z,25.47
2022-12-05T00:49:12.620Z,28.07
2022-12-05T00:51:44.157Z,25.97
2022-12-05T00:54:16.971Z,28.80
2022-12-05T00:56:46.100Z,27.50
2022-12-05T00:59:19.923Z,28.47
2022-12-05T01:01:51.052Z,26.47
2022-12-05T01:04:25.179Z,26.73
2022-12-05T01:06:59.141Z,26.40
2022-12-05T01:09:27.270Z,26.57
2022-12-05T01:11:55.854Z,27.00
2022-12-05T01:14:26.845Z,26.67
2022-12-05T01:16:57.569Z,26.37
2022-12-05T01:19:32.766Z,26.20
2022-12-05T01:22:01.337Z,25.10
2022-12-05T01:24:31.181Z,26.83
2022-12-05T01:26:59.631Z,28.90
2022-12-05T01:29:27.399Z,26.90
2022-12-05T01:31:56.429Z,26.47
2022-12-05T01:34:26.196Z,26.57
2022-12-05T01:36:53.941Z,27.47
2022-12-05T01:39:21.748Z,28.07
2022-12-05T01:41:52.131Z,29.23
2022-12-05T01:44:22.613Z,26.87
2022-12-05T01:46:53.525Z,27.70
2022-12-05T01:49:42.829Z,26.77
2022-12-05T01:52:25.357Z,26.60
2022-12-05T01:55:04.776Z,27.87
2022-12-05T01:57:33.554Z,26.97
2022-12-05T02:00:17.385Z,29.37
2022-12-05T02:03:05.688Z,25.57
2022-12-05T02:05:38.165Z,25.67
2022-12-05T02:08:12.013Z,27.37
2022-12-05T02:10:55.563Z,27.23
2022-12-05T02:14:10.636Z,24.87
2022-12-05T02:17:16.888Z,27.23
2022-12-05T02:20:29.580Z,26.50
2022-12-05T02:23:50.856Z,27.00
2022-12-05T02:27:07.831Z,26.90
2022-12-05T02:30:21.163Z,24.37
2022-12-05T02:33:23.868Z,25.97
2022-12-05T02:36:45.084Z,27.53
2022-12-05T02:39:45.691Z,25.83
2022-12-05T02:42:53.650Z,25.17
2022-12-05T02:45:28.830Z,26.50
2022-12-05T02:47:57.516Z,24.60
2022-12-05T02:50:37.810Z,26.13
2022-12-05T02:53:14.738Z,28.00
2022-12-05T02:55:45.979Z,25.10
2022-12-05T02:58:37.038Z,26.03
2022-12-05T03:01:05.100Z,23.80
2022-12-05T03:03:35.126Z,25.40
2022-12-05T03:06:19.959Z,26.70
2022-12-05T03:09:00.899Z,25.20
2022-12-05T03:12:13.120Z,26.37
2022-12-05T03:15:16.271Z,22.60
2022-12-05T03:18:18.731Z,24.30
2022-12-05T03:21:04.215Z,21.53
2022-12-05T03:23:55.156Z,22.73
2022-12-05T03:27:09.576Z,23.80
2022-12-05T03:30:10.531Z,24.63
2022-12-05T03:33:20.414Z,23.10
2022-12-05T03:36:15.966Z,24.33
2022-12-05T03:39:02.783Z,23.07
2022-12-05T03:42:17.855Z,23.10
2022-12-05T03:45:09.813Z,23.53
2022-12-05T03:48:04.722Z,23.70
2022-12-05T03:50:38.511Z,22.77
2022-12-05T03:53:21.154Z,22.40
2022-12-05T03:56:14.695Z,22.70
2022-12-05T03:58:59.730Z,23.53
2022-12-05T04:01:33.435Z,24.43
2022-12-05T04:04:29.835Z,24.60
2022-12-05T04:07:06.138Z,24.33
2022-12-05T04:09:52.561Z,24.67
2022-12-05T04:12:31.294Z,24.23
2022-12-05T04:15:20.606Z,22.00
2022-12-05T04:18:00.370Z,24.20
2022-12-05T04:21:00.813Z,24.40
2022-12-05T04:23:29.471Z,25.67
2022-12-05T04:26:24.068Z,23.40
2022-12-05T04:29:19.500Z,22.50
2022-12-05T04:32:02.500Z,23.47
2022-12-05T04:34:35.494Z,21.00
2022-12-05T04:37:19.948Z,23.23
2022-12-05T04:40:31.525Z,22.70
2022-12-05T04:43:03.319Z,20.50
2022-12-05T04:45:35.726Z,24.37
2022-12-05T04:48:14.730Z,22.30
2022-12-05T04:50:49.578Z,21.43
2022-12-05T04:53:19.091Z,21.97
2022-12-05T04:55:56.012Z,22.33
2022-12-05T04:58:28.277Z,22.23
2022-12-05T05:01:25.241Z,21.83
2022-12-05T05:04:19.564Z,21.33
2022-12-05T05:06:47.681Z,22.70
2022-12-05T05:09:15.255Z,21.53
2022-12-05T05:11:45.099Z,22.70
2022-12-05T05:14:13.243Z,20.93
2022-12-05T05:16:43.288Z,23.80
2022-12-05T05:19:12.296Z,21.87
2022-12-05T05:21:43.206Z,23.83
2022-12-05T05:24:12.751Z,23.03
2022-12-05T05:26:45.880Z,23.30
2022-12-05T05:29:15.535Z,20.17
2022-12-05T05:31:43.767Z,22.77
2022-12-05T05:34:12.602Z,23.80
2022-12-05T05:36:40.413Z,21.90
2022-12-05T05:39:15.531Z,21.70
2022-12-05T05:41:44.156Z,21.53
2022-12-05T05:44:11.805Z,22.17
2022-12-05T05:46:39.969Z,22.30
2022-12-05T05:49:07.716Z,20.23
2022-12-05T05:51:35.953Z,21.73
2022-12-05T05:54:03.765Z,21.20
2022-12-05T05:56:31.574Z,22.10
2022-12-05T05:59:04.169Z,21.10
2022-12-05T06:01:32.812Z,19.47
2022-12-05T06:04:00.889Z,20.30
2022-12-05T06:06:28.711Z,19.23
2022-12-05T06:08:57.054Z,19.33
2022-12-05T06:11:29.039Z,19.80
2022-12-05T06:14:02.821Z,17.80
2022-12-05T06:16:32.679Z,18.33
2022-12-05T06:19:00.886Z,19.20
2022-12-05T06:21:28.706Z,18.03
2022-12-05T06:23:56.943Z,17.67
2022-12-05T06:26:24.628Z,18.20
2022-12-05T06:28:52.367Z,17.00
2022-12-05T06:31:28.710Z,18.97
2022-12-05T06:33:56.405Z,18.83
2022-12-05T06:36:25.060Z,17.90
2022-12-05T06:38:52.681Z,20.20
2022-12-05T06:41:21.820Z,18.60
2022-12-05T06:43:49.446Z,18.07
2022-12-05T06:46:17.485Z,20.60
2022-12-05T06:48:45.663Z,19.37
2022-12-05T06:51:17.481Z,18.37
2022-12-05T06:53:46.288Z,21.17
2022-12-05T06:56:19.837Z,18.87
2022-12-05T06:58:52.501Z,19.67
2022-12-05T07:01:43.228Z,20.47
2022-12-05T07:04:24.586Z,21.10
2022-12-05T07:06:55.639Z,21.30
2022-12-05T07:09:45.467Z,20.13
2022-12-05T07:12:19.036Z,18.57
2022-12-05T07:14:49.457Z,21.53
2022-12-05T07:17:22.537Z,19.17
2022-12-05T07:19:53.279Z,19.07
2022-12-05T07:22:24.298Z,20.43
2022-12-05T07:24:53.378Z,18.80
2022-12-05T07:27:26.923Z,19.70
2022-12-05T07:29:57.239Z,17.27
2022-12-05T07:32:25.436Z,18.53
2022-12-05T07:34:55.480Z,19.17
2022-12-05T07:37:24.026Z,16.67
2022-12-05T07:39:53.797Z,16.73
2022-12-05T07:42:21.869Z,18.97
2022-12-05T07:44:50.097Z,17.50
2022-12-05T07:47:18.518Z,17.60
2022-12-05T07:50:00.148Z,18.27
2022-12-05T07:52:31.363Z,18.53
2022-12-05T07:54:59.515Z,18.60
2022-12-05T07:57:31.368Z,20.67
2022-12-05T07:59:59.098Z,16.50
2022-12-05T08:02:26.937Z,18.70
2022-12-05T08:04:54.619Z,17.57
2022-12-05T08:07:22.158Z,17.77
2022-12-05T08:09:49.779Z,17.37
2022-12-05T08:12:17.366Z,18.40
2022-12-05T08:14:45.020Z,20.00
2022-12-05T08:17:12.653Z,20.50
2022-12-05T08:19:40.351Z,19.93
2022-12-05T08:22:07.991Z,60.37
2022-12-05T08:24:35.800Z,23.57
2022-12-05T08:27:06.413Z,36.27
2022-12-05T08:29:34.563Z,50.80
2022-12-05T08:32:02.751Z,45.40
2022-12-05T08:34:30.428Z,22.20
2022-12-05T08:36:58.047Z,21.83
2022-12-05T08:39:27.136Z,22.60
2022-12-05T08:41:54.715Z,21.07
2022-12-05T08:44:23.299Z,19.67
2022-12-05T08:46:51.432Z,16.63
2022-12-05T08:49:20.175Z,16.07
2022-12-05T08:51:48.308Z,19.03
2022-12-05T08:54:17.425Z,18.17
2022-12-05T08:56:45.416Z,17.60
2022-12-05T08:59:13.385Z,17.13
2022-12-05T09:01:42.432Z,19.70
2022-12-05T09:04:12.623Z,19.93
2022-12-05T09:06:42.262Z,18.43
2022-12-05T09:09:12.530Z,20.77
2022-12-05T09:11:51.067Z,23.30
2022-12-05T09:14:19.834Z,18.60
2022-12-05T09:16:48.605Z,22.27
2022-12-05T09:19:21.746Z,19.10
2022-12-05T09:21:49.362Z,18.33
2022-12-05T09:24:17.644Z,17.73
2022-12-05T09:26:46.184Z,18.63
2022-12-05T09:29:17.128Z,17.43
2022-12-05T09:31:49.995Z,17.70
2022-12-05T09:34:20.206Z,15.30
2022-12-05T09:37:01.320Z,16.93
2022-12-05T09:39:35.127Z,16.20
2022-12-05T09:43:17.410Z,15.10
2022-12-05T09:46:32.669Z,17.37
2022-12-05T09:49:09.989Z,16.20
2022-12-05T09:51:52.198Z,16.23
2022-12-05T09:54:25.652Z,15.67
2022-12-05T09:56:53.781Z,18.93
2022-12-05T09:59:21.969Z,17.43
2022-12-05T10:02:17.643Z,16.10
2022-12-05T10:05:19.667Z,15.97
2022-12-05T10:08:35.502Z,24.97
2022-12-05T10:11:39.432Z,15.53
2022-12-05T10:15:09.574Z,22.87
2022-12-05T10:17:48.580Z,17.00
2022-12-05T10:20:29.938Z,15.20
2022-12-05T10:23:48.773Z,16.50
2022-12-05T10:26:16.299Z,13.30
2022-12-05T10:29:17.734Z,15.30
2022-12-05T10:31:50.247Z,15.23
2022-12-05T10:34:40.230Z,14.40
2022-12-05T10:37:24.301Z,15.00
2022-12-05T10:39:55.483Z,14.63
2022-12-05T10:42:36.171Z,16.43
2022-12-05T10:45:23.792Z,25.20
2022-12-05T10:47:58.329Z,27.80
2022-12-05T10:50:37.601Z,21.40
2022-12-05T10:53:08.457Z,26.13
2022-12-05T10:56:21.436Z,17.60
2022-12-05T10:58:36.152Z,17.07
2022-12-05T11:01:16.044Z,18.67
2022-12-05T11:03:44.696Z,18.77
2022-12-05T11:06:31.205Z,19.00
2022-12-05T11:09:18.375Z,17.10
2022-12-05T11:12:27.296Z,18.53
2022-12-05T11:15:04.043Z,19.60
2022-12-05T11:17:40.580Z,20.00
2022-12-05T11:20:20.379Z,20.77
2022-12-05T11:22:56.531Z,19.77
2022-12-05T11:25:37.740Z,22.13
2022-12-05T11:28:17.699Z,20.07
2022-12-05T11:31:17.568Z,19.17
2022-12-05T11:34:17.688Z,19.70
2022-12-05T11:37:11.642Z,17.03
2022-12-05T11:39:39.777Z,18.70
2022-12-05T11:42:44.175Z,19.13
2022-12-05T11:46:16.845Z,17.73
2022-12-05T11:49:38.298Z,17.43
2022-12-05T11:52:23.880Z,18.97
2022-12-05T11:55:28.169Z,19.40
2022-12-05T11:58:36.494Z,18.90
2022-12-05T12:01:51.919Z,18.70
2022-12-05T12:05:04.617Z,19.20
2022-12-05T12:08:25.614Z,19.60
2022-12-05T12:11:23.930Z,18.87
2022-12-05T12:14:18.246Z,19.80
2022-12-05T12:17:06.786Z,18.97
2022-12-05T12:20:34.784Z,17.50
2022-12-05T12:23:29.824Z,18.80
2022-12-05T12:26:16.089Z,17.67
2022-12-05T12:29:45.894Z,19.57
2022-12-05T12:32:22.661Z,18.30
2022-12-05T12:35:27.996Z,17.60
2022-12-05T12:38:38.378Z,19.30
2022-12-05T12:42:17.104Z,19.87
2022-12-05T12:45:39.736Z,17.27
2022-12-05T12:49:04.076Z,18.80
2022-12-05T12:51:36.207Z,21.10
2022-12-05T12:54:47.314Z,18.70
2022-12-05T12:57:34.648Z,18.17
2022-12-05T13:01:06.500Z,16.80
2022-12-05T13:04:02.546Z,17.47
2022-12-05T13:07:15.683Z,17.10
2022-12-05T13:10:23.750Z,15.77
2022-12-05T13:12:55.484Z,15.20
2022-12-05T13:15:51.243Z,15.90
2022-12-05T13:18:26.715Z,14.83
2022-12-05T13:21:06.631Z,18.23
2022-12-05T13:23:51.390Z,16.37
2022-12-05T13:26:19.957Z,16.60
2022-12-05T13:29:06.328Z,16.60
2022-12-05T13:31:48.205Z,17.27
2022-12-05T13:34:29.391Z,18.23
2022-12-05T13:37:20.021Z,19.23
2022-12-05T13:40:15.774Z,18.80
2022-12-05T13:42:44.751Z,19.20
2022-12-05T13:45:20.915Z,19.80
2022-12-05T13:48:00.471Z,18.13
2022-12-05T13:50:41.090Z,20.53
2022-12-05T13:53:32.038Z,20.20
2022-12-05T13:56:14.517Z,19.70
2022-12-05T13:58:52.894Z,22.80
2022-12-05T14:01:26.617Z,21.60
2022-12-05T14:04:01.087Z,21.07
2022-12-05T14:06:44.880Z,23.87
2022-12-05T14:09:19.032Z,22.27
2022-12-05T14:12:11.611Z,21.83
2022-12-05T14:14:57.315Z,22.93
2022-12-05T14:17:45.350Z,23.80
2022-12-05T14:20:55.907Z,22.20
2022-12-05T14:24:13.107Z,22.77
2022-12-05T14:27:20.113Z,22.33
2022-12-05T14:30:48.343Z,20.03
2022-12-05T14:33:22.899Z,19.80
2022-12-05T14:35:54.385Z,23.73
2022-12-05T14:38:33.739Z,21.73
2022-12-05T14:41:35.545Z,23.20
2022-12-05T14:44:18.373Z,22.43
2022-12-05T14:46:46.585Z,23.83
2022-12-05T14:50:02.274Z,22.17
2022-12-05T14:52:34.096Z,24.10
2022-12-05T14:55:22.147Z,23.10
2022-12-05T14:57:54.537Z,22.30
2022-12-05T15:00:24.457Z,23.97
2022-12-05T15:02:57.372Z,21.40
2022-12-05T15:05:34.840Z,23.00
2022-12-05T15:08:06.212Z,19.97
2022-12-05T15:10:43.583Z,20.80
2022-12-05T15:13:25.233Z,20.27
2022-12-05T15:16:18.272Z,22.17
2022-12-05T15:19:02.184Z,19.93
2022-12-05T15:21:44.770Z,19.07
2022-12-05T15:24:20.150Z,19.47
2022-12-05T15:26:58.986Z,17.17
2022-12-05T15:29:32.912Z,19.10
2022-12-05T15:32:27.948Z,17.07
2022-12-05T15:35:15.147Z,14.80
2022-12-05T15:38:14.449Z,16.47
2022-12-05T15:40:48.289Z,16.63
2022-12-05T15:43:42.343Z,15.40
2022-12-05T15:46:28.203Z,16.67
2022-12-05T15:49:00.771Z,15.53
2022-12-05T15:51:38.519Z,15.40
2022-12-05T15:54:17.772Z,19.87
2022-12-05T15:57:07.492Z,22.67
2022-12-05T15:59:52.825Z,22.87
2022-12-05T16:02:44.124Z,21.47
2022-12-05T16:05:33.001Z,21.80
2022-12-05T16:08:03.832Z,21.23
2022-12-05T16:10:32.869Z,18.47
2022-12-05T16:13:19.801Z,20.47
2022-12-05T16:15:54.209Z,20.20
2022-12-05T16:18:31.552Z,19.00
2022-12-05T16:20:59.849Z,18.17
2022-12-05T16:23:33.208Z,19.20
2022-12-05T16:26:24.885Z,30.03
2022-12-05T16:29:03.033Z,25.57
2022-12-05T16:31:34.244Z,23.73
2022-12-05T16:34:16.816Z,26.13
2022-12-05T16:36:51.597Z,24.00
2022-12-05T16:39:21.838Z,25.70
2022-12-05T16:41:50.891Z,25.90
2022-12-05T16:44:46.258Z,26.30
2022-12-05T16:47:47.279Z,24.23
2022-12-05T16:50:35.394Z,27.17
2022-12-05T16:53:33.015Z,25.73
2022-12-05T16:56:01.151Z,26.10
2022-12-05T16:58:31.695Z,25.77
2022-12-05T17:01:07.423Z,25.47
2022-12-05T17:03:36.081Z,27.13
2022-12-05T17:06:04.319Z,25.40
2022-12-05T17:08:31.960Z,24.53
2022-12-05T17:11:01.997Z,23.07
2022-12-05T17:13:32.879Z,24.07
2022-12-05T17:16:01.266Z,24.00
2022-12-05T17:18:31.772Z,23.90
2022-12-05T17:21:02.647Z,27.27
2022-12-05T17:23:30.264Z,27.80
2022-12-05T17:25:59.880Z,29.63
2022-12-05T17:28:27.487Z,29.60
2022-12-05T17:30:55.023Z,32.10
2022-12-05T17:33:22.761Z,25.57
2022-12-05T17:35:52.056Z,27.77
2022-12-05T17:38:19.653Z,25.30
2022-12-05T17:40:47.980Z,26.40
2022-12-05T17:43:19.920Z,24.37
2022-12-05T17:45:50.791Z,24.77
2022-12-05T17:48:18.360Z,25.77
2022-12-05T17:50:49.792Z,27.30
2022-12-05T17:53:21.541Z,28.70
2022-12-05T17:55:49.619Z,28.63
2022-12-05T17:58:18.506Z,34.07
2022-12-05T18:00:47.657Z,29.97
2022-12-05T18:03:18.319Z,26.93
2022-12-05T18:05:47.748Z,30.40
2022-12-05T18:08:17.280Z,31.63
2022-12-05T18:10:49.489Z,32.93
2022-12-05T18:13:18.896Z,32.83
2022-12-05T18:15:49.115Z,31.17
2022-12-05T18:18:18.992Z,34.90
2022-12-05T18:20:46.629Z,32.80
2022-12-05T18:23:15.521Z,35.13
2022-12-05T18:25:43.111Z,38.87
2022-12-05T18:28:12.233Z,30.73
2022-12-05T18:30:41.666Z,32.30
2022-12-05T18:33:09.260Z,32.03
2022-12-05T18:35:42.048Z,31.63
2022-12-05T18:38:12.848Z,33.87
2022-12-05T18:40:40.560Z,34.90
2022-12-05T18:43:08.141Z,31.23
2022-12-05T18:45:35.795Z,31.80
2022-12-05T18:48:23.322Z,36.63
2022-12-05T18:50:52.118Z,33.77
2022-12-05T18:53:20.297Z,32.83
2022-12-05T18:58:36.537Z,29.73
2022-12-05T19:01:15.455Z,33.37
2022-12-05T19:03:43.026Z,33.60
2022-12-05T19:06:26.307Z,33.87
2022-12-05T19:08:57.466Z,33.40
2022-12-05T19:11:27.533Z,34.00
2022-12-05T19:14:03.960Z,37.90
2022-12-05T19:16:35.820Z,37.50
2022-12-05T19:19:09.127Z,34.67
2022-12-05T19:21:37.595Z,32.80
2022-12-05T19:24:10.695Z,39.43
2022-12-05T19:26:39.147Z,37.93
2022-12-05T19:29:08.329Z,38.50
2022-12-05T19:31:35.995Z,32.73
2022-12-05T19:34:08.317Z,32.57
2022-12-05T19:36:45.604Z,33.43
2022-12-05T19:39:27.444Z,31.10
2022-12-05T19:41:57.624Z,30.80
2022-12-05T19:44:27.176Z,29.17
2022-12-05T19:46:55.145Z,30.10
2022-12-05T19:49:23.840Z,29.40
2022-12-05T19:51:52.641Z,33.73
2022-12-05T19:54:22.179Z,35.10
2022-12-05T19:56:49.777Z,31.43
2022-12-05T19:59:17.647Z,30.87
2022-12-05T20:01:45.477Z,28.00
2022-12-05T20:04:17.017Z,29.77
2022-12-05T20:06:50.056Z,30.60
2022-12-05T20:09:22.861Z,31.07
2022-12-05T20:11:55.838Z,28.33
2022-12-05T20:14:26.027Z,27.30
2022-12-05T20:16:54.254Z,31.10
2022-12-05T20:19:23.888Z,32.80
2022-12-05T20:21:52.128Z,28.60
2022-12-05T20:24:19.821Z,31.00
2022-12-05T20:26:47.602Z,26.10
2022-12-05T20:29:15.215Z,31.30
2022-12-05T20:31:43.902Z,29.93
2022-12-05T20:34:15.294Z,28.30
2022-12-05T20:36:43.755Z,27.60
2022-12-05T20:39:16.972Z,23.07
2022-12-05T20:41:46.318Z,26.97
2022-12-05T20:44:17.753Z,27.27
2022-12-05T20:46:45.822Z,27.33
2022-12-05T20:49:14.463Z,26.30
2022-12-05T20:51:46.803Z,25.67
2022-12-05T20:54:18.292Z,29.10
2022-12-05T20:56:46.385Z,26.50
2022-12-05T20:59:15.251Z,26.50
2022-12-05T21:01:43.763Z,25.63
2022-12-05T21:04:13.618Z,27.90
2022-12-05T21:06:43.837Z,27.83
2022-12-05T21:09:19.399Z,27.93
2022-12-05T21:11:46.973Z,31.27
2022-12-05T21:14:14.929Z,27.13
2022-12-05T21:16:42.602Z,31.07
2022-12-05T21:19:10.278Z,26.40
2022-12-05T21:21:38.901Z,29.90
2022-12-05T21:24:09.988Z,29.53
2022-12-05T21:26:39.568Z,31.90
2022-12-05T21:29:08.904Z,29.40
2022-12-05T21:31:42.497Z,33.10
2022-12-05T21:34:21.803Z,35.20
2022-12-05T21:36:49.931Z,31.27
2022-12-05T21:39:17.548Z,28.33
2022-12-05T21:41:45.129Z,31.70
2022-12-05T21:44:14.925Z,29.33
2022-12-05T21:46:42.574Z,29.70
2022-12-05T21:49:11.366Z,30.07
2022-12-05T21:51:38.944Z,31.97
2022-12-05T21:54:07.266Z,29.27
2022-12-05T21:56:34.811Z,28.17
2022-12-05T21:59:02.393Z,32.03
2022-12-05T22:01:30.103Z,31.17
2022-12-05T22:03:59.706Z,30.40
2022-12-05T22:06:33.505Z,29.13
2022-12-05T22:09:02.361Z,30.43
2022-12-05T22:11:30.611Z,38.17
2022-12-05T22:13:58.234Z,37.27
2022-12-05T22:16:32.475Z,32.77
2022-12-05T22:19:01.796Z,34.70
2022-12-05T22:21:34.095Z,29.30
2022-12-05T22:24:02.176Z,29.63
2022-12-05T22:26:29.718Z,34.13
2022-12-05T22:28:57.548Z,33.10
2022-12-05T22:31:26.513Z,36.07
2022-12-05T22:33:54.202Z,32.00
2022-12-05T22:36:23.188Z,32.17
2022-12-05T22:38:51.146Z,34.67
2022-12-05T22:41:25.287Z,33.80
2022-12-05T22:44:00.167Z,31.93
2022-12-05T22:46:29.728Z,30.80
2022-12-05T22:48:58.468Z,32.63
2022-12-05T22:51:27.627Z,30.20
2022-12-05T22:53:56.266Z,34.73
2022-12-05T22:56:29.422Z,30.97
2022-12-05T22:59:01.538Z,38.53
2022-12-05T23:01:35.677Z,33.27
2022-12-05T23:04:12.232Z,31.37
2022-12-05T23:06:40.727Z,35.73
2022-12-05T23:09:14.527Z,34.80
2022-12-05T23:11:42.202Z,34.17
2022-12-05T23:14:10.489Z,32.40
2022-12-05T23:16:39.467Z,36.00
2022-12-05T23:19:08.471Z,34.23
2022-12-05T23:21:40.406Z,29.33
2022-12-05T23:24:13.151Z,35.30
2022-12-05T23:26:45.670Z,31.60
2022-12-05T23:29:15.182Z,36.17
2022-12-05T23:31:43.622Z,32.03
2022-12-05T23:34:12.245Z,35.90
2022-12-05T23:36:44.043Z,34.40
2022-12-05T23:39:14.281Z,31.17
2022-12-05T23:41:44.209Z,34.93
2022-12-05T23:44:13.305Z,30.73
2022-12-05T23:46:40.956Z,34.47
2022-12-05T23:49:08.777Z,32.70
2022-12-05T23:51:40.248Z,33.80
2022-12-05T23:54:12.341Z,31.50
2022-12-05T23:56:40.164Z,37.30
2022-12-05T23:59:09.750Z,39.93
